Weather History for Mineral Point, WI

Change the Weather History Date:

Monday, March 11, 2013

  Actual Average (KLNR) Record (KLNR)
Temperature  
Mean Temperature 32 °F -  
Max Temperature 33 °F 36 °F 66 °F (2006)
Min Temperature 32 °F 20 °F 6 °F (1998)
Degree Days  
Heating Degree Days 32    
Moisture  
Dew Point 31 °F    
Average Humidity 93    
Maximum Humidity 100    
Minimum Humidity 80    
Precipitation  
Precipitation 0.00 in - - ()
Sea Level Pressure  
Sea Level Pressure 29.63 in    
Wind  
Wind Speed 10 mph (NW)    
Max Wind Speed 18 mph    
Max Gust Speed 25 mph    
Visibility 8 miles    
Events Snow    
Averages and records for this station are not official NWS values.
T = Trace of Precipitation, MM = Missing Value Source: NWS Daily Summary

Daily Weather History Graph

Daily Weather History Graph

Search for Another Location

Airport:

Trip Planner

Search our weather history database for the weather conditions in past years. The results will help you decide how hot, cold, wet, or windy it might be!

Date:

Astronomy

Mar. 11, 2013 Rise Set
Actual Time 7:19 AM CDT 7:02 PM CDT
Civil Twilight 6:51 AM CDT 7:31 PM CDT
Nautical Twilight 6:18 AM CDT 8:03 PM CDT
Astronomical Twilight 5:45 AM CDT 8:37 PM CDT
Moon 6:52 AM CDT (3/11) 7:16 PM CDT (3/11)
Length of Visible Light 12h 39m
Length of Day
11h 43m
Waning Crescent, 0% of the Moon is Illuminated
Mar 11
Waning Crescent
Mar 11
New
Mar 19
First Quarter
Mar 27
Full
Apr 2
Last Quarter

Hourly Weather History & Observations

Time (CDT) Temp. Windchill Dew Point Humidity Pressure Visibility Wind Dir Wind Speed Gust Speed Precip Events Conditions
12:15 AM 33.8 °F 25.3 °F 32.0 °F 93% 29.62 in 10.0 mi NNE 11.5 mph - N/A   Overcast
12:35 AM 33.8 °F 25.3 °F 32.0 °F 93% 29.62 in 10.0 mi North 11.5 mph - N/A   Overcast
12:55 AM 33.8 °F 25.8 °F 32.0 °F 93% 29.63 in 10.0 mi North 10.4 mph - N/A   Overcast
1:15 AM 33.8 °F 25.8 °F 32.0 °F 93% 29.62 in 10.0 mi NNE 10.4 mph - N/A   Overcast
1:35 AM 33.8 °F 27.0 °F 32.0 °F 93% 29.61 in 10.0 mi North 8.1 mph - N/A   Overcast
1:55 AM 33.8 °F 27.0 °F 32.0 °F 93% 29.61 in 10.0 mi North 8.1 mph - N/A   Overcast
2:15 AM 33.8 °F 26.4 °F 32.0 °F 93% 29.61 in 7.0 mi NNE 9.2 mph - N/A   Overcast
2:55 AM 33.8 °F 27.0 °F 32.0 °F 93% 29.60 in 7.0 mi North 8.1 mph - N/A   Overcast
3:15 AM 33.8 °F 28.6 °F 32.0 °F 93% 29.61 in 5.0 mi North 5.8 mph - N/A   Overcast
3:55 AM 33.8 °F 28.6 °F 32.0 °F 93% 29.59 in 2.5 mi North 5.8 mph - N/A   Overcast
4:15 AM 33.8 °F 29.6 °F 32.0 °F 93% 29.59 in 3.0 mi North 4.6 mph - N/A   Overcast
4:35 AM 33.8 °F 28.6 °F 32.0 °F 93% 29.59 in 3.0 mi North 5.8 mph - N/A   Overcast
4:55 AM 33.8 °F 27.7 °F 32.0 °F 93% 29.59 in 5.0 mi North 6.9 mph - N/A   Overcast
5:35 AM 33.8 °F 27.7 °F 32.0 °F 93% 29.58 in 4.0 mi NNW 6.9 mph - N/A   Overcast
5:55 AM 33.8 °F 25.8 °F 32.0 °F 93% 29.59 in 5.0 mi North 10.4 mph - N/A   Overcast
6:15 AM 32.0 °F 23.0 °F 32.0 °F 100% 29.59 in 5.0 mi North 11.5 mph - N/A   Overcast
6:35 AM 32.0 °F 23.6 °F 32.0 °F 100% 29.59 in 7.0 mi NNW 10.4 mph 16.1 mph N/A   Overcast
6:55 AM 32.0 °F 26.4 °F 32.0 °F 100% 29.60 in 7.0 mi North 5.8 mph - N/A   Overcast
7:15 AM 32.0 °F 23.6 °F 32.0 °F 100% 29.60 in 7.0 mi North 10.4 mph - N/A   Overcast
7:35 AM 32.0 °F 24.2 °F 32.0 °F 100% 29.60 in 7.0 mi North 9.2 mph - N/A   Overcast
7:55 AM 32.0 °F 25.6 °F 32.0 °F 100% 29.61 in 10.0 mi North 6.9 mph - N/A   Overcast
8:15 AM 32.0 °F 24.8 °F 32.0 °F 100% 29.61 in 5.0 mi North 8.1 mph - N/A Snow Light Snow
8:35 AM 32.0 °F 24.2 °F 32.0 °F 100% 29.61 in 2.5 mi NNW 9.2 mph - N/A Snow Light Snow
8:55 AM 32.0 °F 24.2 °F 32.0 °F 100% 29.60 in 2.5 mi NNW 9.2 mph - N/A Snow Light Snow
9:15 AM 32.0 °F 24.8 °F 32.0 °F 100% 29.60 in 2.5 mi NNW 8.1 mph - N/A Snow Light Snow
9:55 AM 32.0 °F 24.8 °F 32.0 °F 100% 29.59 in 5.0 mi North 8.1 mph - N/A Snow Light Snow
10:15 AM 32.0 °F 24.8 °F 32.0 °F 100% 29.58 in 4.0 mi North 8.1 mph - N/A Snow Light Snow
10:35 AM 32.0 °F 25.6 °F 32.0 °F 100% 29.59 in 7.0 mi North 6.9 mph - N/A Snow Light Snow
10:55 AM 32.0 °F 24.8 °F 32.0 °F 100% 29.58 in 7.0 mi NNW 8.1 mph - N/A   Overcast
11:15 AM 32.0 °F 24.8 °F 32.0 °F 100% 29.59 in 10.0 mi NNW 8.1 mph - N/A   Overcast
11:35 AM 32.0 °F 25.6 °F 32.0 °F 100% 29.59 in 10.0 mi NW 6.9 mph - N/A   Overcast
11:55 AM 32.0 °F 26.4 °F 30.2 °F 93% 29.59 in 10.0 mi NW 5.8 mph - N/A   Overcast
12:15 PM 33.8 °F 27.7 °F 30.2 °F 87% 29.59 in 10.0 mi NW 6.9 mph - N/A   Overcast
12:35 PM 32.0 °F 25.6 °F 30.2 °F 93% 29.59 in 10.0 mi WNW 6.9 mph - N/A   Overcast
12:55 PM 33.8 °F 27.7 °F 30.2 °F 87% 29.58 in 10.0 mi NW 6.9 mph - N/A   Overcast
1:15 PM 32.0 °F 23.6 °F 30.2 °F 93% 29.58 in 10.0 mi WNW 10.4 mph - N/A Snow Light Snow
1:35 PM 32.0 °F 24.2 °F 30.2 °F 93% 29.58 in 10.0 mi NW 9.2 mph - N/A   Overcast
1:55 PM 32.0 °F 24.8 °F 30.2 °F 93% 29.58 in 10.0 mi WNW 8.1 mph 17.3 mph N/A   Overcast
2:15 PM 32.0 °F 24.2 °F 30.2 °F 93% 29.57 in 10.0 mi WNW 9.2 mph 16.1 mph N/A Snow Light Snow
2:35 PM 32.0 °F 23.6 °F 30.2 °F 93% 29.57 in 10.0 mi WNW 10.4 mph - N/A   Overcast
2:55 PM 32.0 °F 24.2 °F 30.2 °F 93% 29.57 in 5.0 mi WNW 9.2 mph - N/A Snow Light Snow
3:15 PM 32.0 °F 24.8 °F 32.0 °F 100% 29.58 in 4.0 mi WNW 8.1 mph - N/A   Overcast
3:35 PM 32.0 °F 22.5 °F 30.2 °F 93% 29.59 in 4.0 mi WNW 12.7 mph - N/A   Overcast
3:55 PM 32.0 °F 23.0 °F 30.2 °F 93% 29.60 in 7.0 mi WNW 11.5 mph 17.3 mph N/A   Overcast
4:15 PM 32.0 °F 22.1 °F 30.2 °F 93% 29.60 in 7.0 mi WNW 13.8 mph - N/A   Overcast
4:35 PM 32.0 °F 23.0 °F 30.2 °F 93% 29.61 in 10.0 mi NW 11.5 mph 19.6 mph N/A   Overcast
4:55 PM 32.0 °F 24.2 °F 28.4 °F 87% 29.61 in 10.0 mi NW 9.2 mph 19.6 mph N/A   Overcast
5:15 PM 32.0 °F 24.2 °F 28.4 °F 87% 29.62 in 10.0 mi NW 9.2 mph - N/A   Overcast
5:35 PM 32.0 °F 24.8 °F 30.2 °F 93% 29.62 in 10.0 mi WNW 8.1 mph - N/A   Overcast
5:55 PM 32.0 °F 22.1 °F 28.4 °F 87% 29.63 in 10.0 mi WNW 13.8 mph 17.3 mph N/A   Overcast
6:15 PM 32.0 °F 24.2 °F 30.2 °F 93% 29.65 in 4.0 mi WNW 9.2 mph - N/A Snow Light Snow
6:35 PM 32.0 °F 23.6 °F 30.2 °F 93% 29.66 in 10.0 mi WNW 10.4 mph - N/A   Overcast
6:55 PM 32.0 °F 24.2 °F 30.2 °F 93% 29.67 in 10.0 mi WNW 9.2 mph - N/A Snow Light Snow
7:15 PM 32.0 °F 23.0 °F 30.2 °F 93% 29.68 in 10.0 mi WNW 11.5 mph - N/A   Overcast
7:35 PM 32.0 °F 20.5 °F 30.2 °F 93% 29.69 in 10.0 mi West 18.4 mph 25.3 mph N/A   Overcast
7:55 PM 32.0 °F 22.1 °F 30.2 °F 93% 29.70 in 10.0 mi WNW 13.8 mph 20.7 mph N/A   Overcast
8:15 PM 32.0 °F 21.6 °F 28.4 °F 87% 29.71 in 10.0 mi West 15.0 mph 24.2 mph N/A   Overcast
8:35 PM 32.0 °F 21.6 °F 28.4 °F 87% 29.71 in 10.0 mi West 15.0 mph 23.0 mph N/A   Overcast
8:55 PM 32.0 °F 22.1 °F 28.4 °F 87% 29.72 in 10.0 mi WNW 13.8 mph 20.7 mph N/A   Overcast
9:15 PM 32.0 °F 21.6 °F 28.4 °F 87% 29.73 in 10.0 mi West 15.0 mph - N/A   Overcast
9:35 PM 32.0 °F 23.0 °F 28.4 °F 87% 29.74 in 10.0 mi WNW 11.5 mph 16.1 mph N/A   Overcast
9:55 PM 32.0 °F 23.6 °F 28.4 °F 87% 29.75 in 10.0 mi WNW 10.4 mph - N/A Snow Light Snow
10:15 PM 32.0 °F 23.6 °F 28.4 °F 87% 29.76 in 10.0 mi WNW 10.4 mph 16.1 mph N/A   Overcast
10:55 PM 32.0 °F 22.1 °F 28.4 °F 87% 29.76 in 10.0 mi WNW 13.8 mph 18.4 mph N/A   Overcast
11:15 PM 32.0 °F 23.0 °F 28.4 °F 87% 29.77 in 10.0 mi West 11.5 mph - N/A   Overcast
11:35 PM 32.0 °F 20.8 °F 28.4 °F 87% 29.77 in 10.0 mi West 17.3 mph 21.9 mph N/A   Overcast
11:55 PM 32.0 °F 22.1 °F 26.6 °F 80% 29.77 in 10.0 mi WNW 13.8 mph 21.9 mph N/A Snow Light Snow